createdAt,value
2019-02-28T00:00:19.044Z,0
2019-02-28T00:01:19.871Z,0
2019-02-28T00:02:24.017Z,0
2019-02-28T00:03:20.327Z,0
2019-02-28T00:04:18.566Z,0
2019-02-28T00:05:18.847Z,0
2019-02-28T00:06:19.584Z,0
2019-02-28T00:07:22.364Z,0
2019-02-28T00:08:19.433Z,0
2019-02-28T00:09:19.240Z,0
2019-02-28T00:10:18.941Z,0
2019-02-28T00:11:18.998Z,0
2019-02-28T00:12:21.002Z,0
2019-02-28T00:13:24.038Z,0
2019-02-28T00:14:19.281Z,0
2019-02-28T00:15:19.566Z,0
2019-02-28T00:16:19.320Z,0
2019-02-28T00:17:19.613Z,0
2019-02-28T00:18:22.470Z,0
2019-02-28T00:19:20.981Z,0
2019-02-28T00:20:19.403Z,0
2019-02-28T00:21:19.413Z,0
2019-02-28T00:22:21.496Z,0
2019-02-28T00:23:24.093Z,0
2019-02-28T00:24:19.465Z,0
2019-02-28T00:25:19.483Z,0
2019-02-28T00:26:19.234Z,0
2019-02-28T00:27:23.630Z,0
2019-02-28T00:28:19.291Z,0
2019-02-28T00:29:19.400Z,0
2019-02-28T00:30:19.317Z,0
2019-02-28T00:31:22.086Z,0
2019-02-28T00:32:21.336Z,0
2019-02-28T00:33:19.905Z,0
2019-02-28T00:34:19.118Z,0
2019-02-28T00:35:20.994Z,0
2019-02-28T00:36:23.609Z,0
2019-02-28T00:37:19.457Z,0
2019-02-28T00:38:19.462Z,0
2019-02-28T00:39:19.739Z,0
2019-02-28T00:40:19.503Z,0
2019-02-28T00:41:20.041Z,0
2019-02-28T00:42:24.605Z,0
2019-02-28T00:43:22.233Z,0
2019-02-28T00:44:19.880Z,0
2019-02-28T00:45:19.593Z,0
2019-02-28T00:46:19.608Z,0
2019-02-28T00:47:21.398Z,0
2019-02-28T00:48:25.892Z,0
2019-02-28T00:49:19.660Z,0
2019-02-28T00:50:19.685Z,0
2019-02-28T00:51:19.694Z,0
2019-02-28T00:52:19.453Z,0
2019-02-28T00:53:19.995Z,0
2019-02-28T00:54:20.016Z,0
2019-02-28T00:55:21.368Z,0
2019-02-28T00:56:21.998Z,0
2019-02-28T00:57:19.810Z,0
2019-02-28T00:58:20.085Z,0
2019-02-28T00:59:20.110Z,0
2019-02-28T01:00:20.152Z,0
2019-02-28T01:01:20.160Z,0
2019-02-28T01:02:22.357Z,0
2019-02-28T01:03:19.920Z,0
2019-02-28T01:04:20.462Z,0
2019-02-28T01:05:19.697Z,0
2019-02-28T01:06:19.712Z,0
2019-02-28T01:07:23.640Z,0
2019-02-28T01:08:22.074Z,0
2019-02-28T01:09:20.555Z,0
2019-02-28T01:10:20.058Z,0
2019-02-28T01:11:20.936Z,0
2019-02-28T01:12:26.223Z,0
2019-02-28T01:13:20.651Z,0
2019-02-28T01:14:19.858Z,0
2019-02-28T01:15:20.141Z,0
2019-02-28T01:16:24.592Z,0
2019-02-28T01:17:20.439Z,0
2019-02-28T01:18:19.930Z,0
2019-02-28T01:19:20.214Z,0
2019-02-28T01:20:22.964Z,0
2019-02-28T01:21:23.604Z,0
2019-02-28T01:22:20.271Z,0
2019-02-28T01:23:20.290Z,0
2019-02-28T01:24:20.049Z,0
2019-02-28T01:25:20.327Z,0
2019-02-28T01:26:20.081Z,0
2019-02-28T01:27:25.456Z,0
2019-02-28T01:28:23.346Z,0
2019-02-28T01:29:20.412Z,0
2019-02-28T01:30:20.955Z,0
2019-02-28T01:31:20.696Z,0
2019-02-28T01:32:23.316Z,0
2019-02-28T01:33:26.949Z,0
2019-02-28T01:34:20.491Z,0
2019-02-28T01:35:20.247Z,0
2019-02-28T01:36:22.966Z,0
2019-02-28T01:37:23.583Z,0
2019-02-28T01:38:23.861Z,0
2019-02-28T01:39:21.156Z,0
2019-02-28T01:40:20.345Z,0
2019-02-28T01:41:20.885Z,0
2019-02-28T01:42:26.173Z,0
2019-02-28T01:43:20.660Z,0
2019-02-28T01:44:20.679Z,0
2019-02-28T01:45:20.710Z,0
2019-02-28T01:46:23.541Z,0
2019-02-28T01:47:22.447Z,0
2019-02-28T01:48:22.582Z,0
2019-02-28T01:49:20.519Z,0
2019-02-28T01:50:21.060Z,0
2019-02-28T01:51:21.089Z,0
2019-02-28T01:52:20.822Z,0
2019-02-28T01:53:25.792Z,0
2019-02-28T01:54:20.864Z,0
2019-02-28T01:55:21.153Z,0
2019-02-28T01:56:21.156Z,0
2019-02-28T01:57:20.925Z,0
2019-02-28T01:58:23.798Z,0
2019-02-28T01:59:24.372Z,0
2019-02-28T02:00:23.752Z,0
2019-02-28T02:01:21.253Z,0
2019-02-28T02:02:21.542Z,0
2019-02-28T02:03:21.657Z,0
2019-02-28T02:04:21.331Z,0
2019-02-28T02:05:24.140Z,0
2019-02-28T02:06:22.453Z,0
2019-02-28T02:07:20.838Z,0
2019-02-28T02:08:21.117Z,0
2019-02-28T02:09:21.404Z,0
2019-02-28T02:10:24.699Z,0
2019-02-28T02:11:21.170Z,0
2019-02-28T02:12:20.936Z,0
2019-02-28T02:13:21.209Z,0
2019-02-28T02:14:21.237Z,0
2019-02-28T02:15:24.245Z,0
2019-02-28T02:16:26.648Z,0
2019-02-28T02:17:21.551Z,0
2019-02-28T02:18:21.411Z,0
2019-02-28T02:19:25.400Z,0
2019-02-28T02:20:23.364Z,0
2019-02-28T02:21:21.369Z,0
2019-02-28T02:22:21.394Z,0
2019-02-28T02:23:24.466Z,0
2019-02-28T02:24:24.294Z,0
2019-02-28T02:25:21.543Z,0
2019-02-28T02:26:21.456Z,0
2019-02-28T02:27:25.930Z,0
2019-02-28T02:28:26.563Z,0
2019-02-28T02:29:21.781Z,0
2019-02-28T02:30:23.147Z,0
2019-02-28T02:31:27.123Z,0
2019-02-28T02:32:21.675Z,0
2019-02-28T02:33:22.327Z,0
2019-02-28T02:34:24.240Z,0
2019-02-28T02:35:21.926Z,0
2019-02-28T02:36:23.458Z,0
2019-02-28T02:37:21.918Z,0
2019-02-28T02:38:22.208Z,0
2019-02-28T02:39:24.443Z,0
2019-02-28T02:40:25.599Z,0
2019-02-28T02:41:21.996Z,0
2019-02-28T02:42:21.762Z,0
2019-02-28T02:43:25.279Z,0
2019-02-28T02:44:21.794Z,0
2019-02-28T02:45:22.104Z,0
2019-02-28T02:46:26.833Z,0
2019-02-28T02:47:22.403Z,0
2019-02-28T02:48:22.209Z,0
2019-02-28T02:49:26.750Z,0
2019-02-28T02:50:22.441Z,0
2019-02-28T02:51:21.927Z,0
2019-02-28T02:52:30.478Z,0
2019-02-28T02:53:22.209Z,0
2019-02-28T02:54:26.775Z,0
2019-02-28T02:55:27.535Z,0
2019-02-28T02:56:21.789Z,0
2019-02-28T02:57:22.585Z,0
2019-02-28T02:58:29.099Z,0
2019-02-28T02:59:22.333Z,0
2019-02-28T03:00:22.460Z,0
2019-02-28T03:01:25.768Z,0
2019-02-28T03:02:22.140Z,0
2019-02-28T03:03:22.421Z,0
2019-02-28T03:04:28.877Z,0
2019-02-28T03:05:22.447Z,0
2019-02-28T03:06:22.466Z,0
2019-02-28T03:07:29.901Z,0
2019-02-28T03:08:21.989Z,0
2019-02-28T03:09:22.036Z,0
2019-02-28T03:10:24.553Z,0
2019-02-28T03:11:27.279Z,0
2019-02-28T03:12:22.834Z,0
2019-02-28T03:13:22.586Z,0
2019-02-28T03:14:24.355Z,0
2019-02-28T03:15:29.999Z,0
2019-02-28T03:16:22.697Z,0
2019-02-28T03:17:22.930Z,0
2019-02-28T03:18:27.367Z,0
2019-02-28T03:19:22.168Z,0
2019-02-28T03:20:22.656Z,0
2019-02-28T03:21:23.352Z,0
2019-02-28T03:22:28.027Z,0
2019-02-28T03:23:22.526Z,0
2019-02-28T03:24:23.233Z,0
2019-02-28T03:25:27.410Z,0
2019-02-28T03:26:22.872Z,0
2019-02-28T03:27:26.677Z,0
2019-02-28T03:28:22.910Z,0
2019-02-28T03:29:22.909Z,0
2019-02-28T03:30:38.075Z,0
2019-02-28T03:31:23.196Z,0
2019-02-28T03:32:22.710Z,0
2019-02-28T03:33:34.333Z,0
2019-02-28T03:34:22.825Z,0
2019-02-28T03:35:23.090Z,0
2019-02-28T03:36:24.200Z,0
2019-02-28T03:37:22.761Z,0
2019-02-28T03:38:23.331Z,0
2019-02-28T03:39:29.006Z,0
2019-02-28T03:40:23.143Z,0
2019-02-28T03:41:24.792Z,0
2019-02-28T03:42:28.476Z,0
2019-02-28T03:43:22.891Z,0
2019-02-28T03:44:28.423Z,0
2019-02-28T03:45:23.017Z,0
2019-02-28T03:46:22.924Z,0
2019-02-28T03:47:29.824Z,0
2019-02-28T03:48:22.709Z,0
2019-02-28T03:49:22.980Z,0
2019-02-28T03:50:26.759Z,0
2019-02-28T03:51:23.019Z,0
2019-02-28T03:52:23.300Z,0
2019-02-28T03:53:28.004Z,0
2019-02-28T03:54:23.383Z,0
2019-02-28T03:55:23.116Z,0
2019-02-28T03:56:23.386Z,0
2019-02-28T03:57:30.545Z,0
2019-02-28T03:58:23.711Z,0
2019-02-28T03:59:26.958Z,0
2019-02-28T04:00:23.789Z,0
2019-02-28T04:01:23.216Z,0
2019-02-28T04:02:27.906Z,0
2019-02-28T04:03:23.785Z,0
2019-02-28T04:04:23.261Z,0
2019-02-28T04:05:31.766Z,0
2019-02-28T04:06:23.310Z,0
2019-02-28T04:07:24.152Z,0
2019-02-28T04:08:29.229Z,0
2019-02-28T04:09:23.608Z,0
2019-02-28T04:10:29.264Z,0
2019-02-28T04:11:30.460Z,0
2019-02-28T04:12:23.926Z,0
2019-02-28T04:13:26.444Z,0
2019-02-28T04:14:23.435Z,0
2019-02-28T04:15:23.194Z,0
2019-02-28T04:16:23.212Z,0
2019-02-28T04:17:29.812Z,0
2019-02-28T04:18:23.566Z,0
2019-02-28T04:19:28.487Z,0
2019-02-28T04:20:24.082Z,0
2019-02-28T04:21:23.617Z,0
2019-02-28T04:22:29.181Z,0
2019-02-28T04:23:23.335Z,0
2019-02-28T04:24:23.729Z,0
2019-02-28T04:25:29.725Z,0
2019-02-28T04:26:23.668Z,0
2019-02-28T04:27:23.941Z,0
2019-02-28T04:28:25.647Z,0
2019-02-28T04:29:29.807Z,0
2019-02-28T04:30:24.013Z,0
2019-02-28T04:31:27.384Z,0
2019-02-28T04:32:28.876Z,0
2019-02-28T04:33:23.820Z,0
2019-02-28T04:34:24.066Z,0
2019-02-28T04:35:29.013Z,0
2019-02-28T04:36:24.115Z,0
2019-02-28T04:37:23.875Z,0
2019-02-28T04:38:27.103Z,0
2019-02-28T04:39:27.472Z,0
2019-02-28T04:40:28.803Z,0
2019-02-28T04:41:24.185Z,0
2019-02-28T04:42:23.936Z,0
2019-02-28T04:43:24.223Z,0
2019-02-28T04:44:25.939Z,0
2019-02-28T04:45:28.282Z,0
2019-02-28T04:46:24.536Z,0
2019-02-28T04:47:24.293Z,0
2019-02-28T04:48:24.308Z,0
2019-02-28T04:49:28.632Z,0
2019-02-28T04:50:24.348Z,0
2019-02-28T04:51:24.101Z,0
2019-02-28T04:52:24.386Z,0
2019-02-28T04:53:25.922Z,0
2019-02-28T04:54:27.791Z,0
2019-02-28T04:55:24.441Z,0
2019-02-28T04:56:24.225Z,0
2019-02-28T04:57:27.455Z,0
2019-02-28T04:58:28.046Z,0
2019-02-28T04:59:24.771Z,0
2019-02-28T05:00:24.528Z,0
2019-02-28T05:01:24.301Z,0
2019-02-28T05:02:27.315Z,0
2019-02-28T05:03:30.457Z,0
2019-02-28T05:04:24.335Z,0
2019-02-28T05:05:24.354Z,0
2019-02-28T05:06:27.316Z,0
2019-02-28T05:07:26.229Z,0
2019-02-28T05:08:24.671Z,0
2019-02-28T05:09:24.434Z,0
2019-02-28T05:10:28.288Z,0
2019-02-28T05:11:27.329Z,0
2019-02-28T05:12:25.024Z,0
2019-02-28T05:13:24.765Z,0
2019-02-28T05:14:30.535Z,0
2019-02-28T05:15:24.539Z,0
2019-02-28T05:16:24.830Z,0
2019-02-28T05:17:28.526Z,0
2019-02-28T05:18:27.529Z,0
2019-02-28T05:19:24.870Z,0
2019-02-28T05:20:24.367Z,0
2019-02-28T05:21:26.612Z,0
2019-02-28T05:22:27.537Z,0
2019-02-28T05:23:24.948Z,0
2019-02-28T05:24:24.965Z,0
2019-02-28T05:25:25.343Z,0
2019-02-28T05:26:28.174Z,0
2019-02-28T05:27:26.948Z,0
2019-02-28T05:28:24.512Z,0
2019-02-28T05:29:24.527Z,0
2019-02-28T05:30:26.493Z,0
2019-02-28T05:31:29.339Z,0
2019-02-28T05:32:25.370Z,0
2019-02-28T05:33:24.869Z,0
2019-02-28T05:34:25.163Z,0
2019-02-28T05:35:30.241Z,0
2019-02-28T05:36:25.181Z,0
2019-02-28T05:37:24.938Z,0
2019-02-28T05:38:28.396Z,0
2019-02-28T05:39:24.734Z,0
2019-02-28T05:40:25.251Z,0
2019-02-28T05:41:25.292Z,0
2019-02-28T05:42:29.715Z,0
2019-02-28T05:43:25.584Z,0
2019-02-28T05:44:26.017Z,0
2019-02-28T05:45:25.341Z,0
2019-02-28T05:46:30.120Z,0
2019-02-28T05:47:26.070Z,4
2019-02-28T05:48:25.136Z,0
2019-02-28T05:49:24.904Z,0
2019-02-28T05:50:25.437Z,4
2019-02-28T05:51:27.434Z,0
2019-02-28T05:52:25.758Z,4
2019-02-28T05:53:25.757Z,4
2019-02-28T05:54:25.264Z,8
2019-02-28T05:55:32.517Z,8
2019-02-28T05:56:25.801Z,8
2019-02-28T05:57:25.564Z,12
2019-02-28T05:58:27.846Z,8
2019-02-28T05:59:30.607Z,12
2019-02-28T06:00:25.095Z,16
2019-02-28T06:01:25.106Z,16
2019-02-28T06:02:30.274Z,20
2019-02-28T06:03:25.415Z,24
2019-02-28T06:04:25.173Z,28
2019-02-28T06:05:25.707Z,32
2019-02-28T06:06:27.625Z,36
2019-02-28T06:07:28.814Z,40
2019-02-28T06:08:25.794Z,48
2019-02-28T06:09:25.245Z,52
2019-02-28T06:10:30.355Z,60
2019-02-28T06:11:25.554Z,64
2019-02-28T06:12:25.570Z,72
2019-02-28T06:13:25.730Z,80
2019-02-28T06:14:31.068Z,88
2019-02-28T06:15:25.881Z,96
2019-02-28T06:16:25.381Z,104
2019-02-28T06:17:28.637Z,108
2019-02-28T06:18:33.537Z,120
2019-02-28T06:19:27.411Z,128
2019-02-28T06:20:25.985Z,140
2019-02-28T06:21:28.328Z,148
2019-02-28T06:22:25.753Z,156
2019-02-28T06:23:25.779Z,168
2019-02-28T06:24:25.532Z,180
2019-02-28T06:25:32.046Z,188
2019-02-28T06:26:25.819Z,200
2019-02-28T06:27:26.507Z,212
2019-02-28T06:28:27.598Z,220
2019-02-28T06:29:25.871Z,236
2019-02-28T06:30:27.736Z,244
2019-02-28T06:31:25.748Z,252
2019-02-28T06:32:32.051Z,268
2019-02-28T06:33:30.490Z,276
2019-02-28T06:34:26.244Z,288
2019-02-28T06:35:27.792Z,296
2019-02-28T06:36:31.160Z,312
2019-02-28T06:37:28.798Z,320
2019-02-28T06:38:26.395Z,332
2019-02-28T06:39:29.762Z,340
2019-02-28T06:40:25.811Z,344
2019-02-28T06:41:25.834Z,344
2019-02-28T06:42:26.388Z,360
2019-02-28T06:43:26.382Z,380
2019-02-28T06:44:29.227Z,400
2019-02-28T06:45:25.898Z,412
2019-02-28T06:46:26.185Z,424
2019-02-28T06:47:26.236Z,436
2019-02-28T06:48:31.601Z,448
2019-02-28T06:49:26.497Z,460
2019-02-28T06:50:26.250Z,468
2019-02-28T06:51:26.267Z,472
2019-02-28T06:52:30.155Z,480
2019-02-28T06:53:26.046Z,488
2019-02-28T06:54:26.069Z,488
2019-02-28T06:55:26.616Z,500
2019-02-28T06:56:30.874Z,520
2019-02-28T06:57:29.827Z,544
2019-02-28T06:58:26.397Z,556
2019-02-28T06:59:26.971Z,552
2019-02-28T07:00:26.695Z,568
2019-02-28T07:01:31.732Z,600
2019-02-28T07:02:28.459Z,608
2019-02-28T07:03:26.498Z,620
2019-02-28T07:04:26.514Z,644
2019-02-28T07:05:31.804Z,660
2019-02-28T07:06:27.073Z,672
2019-02-28T07:07:26.823Z,688
2019-02-28T07:08:33.349Z,704
2019-02-28T07:09:26.602Z,716
2019-02-28T07:10:26.711Z,720
2019-02-28T07:11:27.517Z,724
2019-02-28T07:12:33.122Z,732
2019-02-28T07:13:27.194Z,740
2019-02-28T07:14:26.976Z,752
2019-02-28T07:15:30.523Z,752
2019-02-28T07:16:27.002Z,756
2019-02-28T07:17:26.494Z,748
2019-02-28T07:18:26.806Z,720
2019-02-28T07:19:30.181Z,656
2019-02-28T07:20:26.797Z,600
2019-02-28T07:21:26.554Z,576
2019-02-28T07:22:28.027Z,560
2019-02-28T07:23:34.402Z,560
2019-02-28T07:24:26.610Z,572
2019-02-28T07:25:26.625Z,588
2019-02-28T07:26:26.912Z,604
2019-02-28T07:27:32.024Z,620
2019-02-28T07:28:27.475Z,624
2019-02-28T07:29:26.956Z,632
2019-02-28T07:30:27.265Z,632
2019-02-28T07:31:30.804Z,628
2019-02-28T07:32:31.270Z,632
2019-02-28T07:33:27.310Z,636
2019-02-28T07:34:30.918Z,636
2019-02-28T07:35:32.639Z,640
2019-02-28T07:36:27.367Z,648
2019-02-28T07:37:27.123Z,660
2019-02-28T07:38:32.883Z,664
2019-02-28T07:39:26.913Z,664
2019-02-28T07:40:27.172Z,676
2019-02-28T07:41:33.262Z,700
2019-02-28T07:42:26.935Z,716
2019-02-28T07:43:27.220Z,728
2019-02-28T07:44:29.000Z,752
2019-02-28T07:45:29.591Z,764
2019-02-28T07:46:29.088Z,776
2019-02-28T07:47:27.988Z,792
2019-02-28T07:48:34.691Z,828
2019-02-28T07:49:35.517Z,868
2019-02-28T07:50:27.345Z,900
2019-02-28T07:51:31.137Z,936
2019-02-28T07:52:32.246Z,952
2019-02-28T07:53:27.397Z,992
2019-02-28T07:54:27.418Z,1024
2019-02-28T07:55:30.383Z,1064
2019-02-28T07:56:28.291Z,1056
2019-02-28T07:57:28.989Z,1068
2019-02-28T07:58:29.567Z,1044
2019-02-28T07:59:27.862Z,1056
2019-02-28T08:00:27.824Z,1064
2019-02-28T08:01:31.894Z,1052
2019-02-28T08:02:28.096Z,1072
2019-02-28T08:03:28.121Z,1104
2019-02-28T08:04:27.871Z,1140
2019-02-28T08:05:32.379Z,1224
2019-02-28T08:06:27.898Z,1288
2019-02-28T08:07:28.193Z,1340
2019-02-28T08:08:32.956Z,1352
2019-02-28T08:09:27.695Z,1388
2019-02-28T08:10:28.251Z,1356
2019-02-28T08:11:28.266Z,1320
2019-02-28T08:12:30.696Z,1244
2019-02-28T08:13:27.774Z,1156
2019-02-28T08:14:28.066Z,1164
2019-02-28T08:15:29.423Z,1224
2019-02-28T08:16:30.578Z,1332
2019-02-28T08:17:28.103Z,1460
2019-02-28T08:18:28.128Z,1512
2019-02-28T08:19:32.765Z,1524
2019-02-28T08:20:30.602Z,1532
2019-02-28T08:21:28.437Z,1532
2019-02-28T08:22:31.663Z,1544
2019-02-28T08:23:32.491Z,1544
2019-02-28T08:24:29.120Z,1548
2019-02-28T08:25:28.262Z,1556
2019-02-28T08:26:28.005Z,1552
2019-02-28T08:27:30.106Z,1560
2019-02-28T08:28:29.535Z,1564
2019-02-28T08:29:28.588Z,1564
2019-02-28T08:30:28.096Z,1580
2019-02-28T08:31:34.274Z,1580
2019-02-28T08:32:28.653Z,1584
2019-02-28T08:33:28.147Z,1596
2019-02-28T08:34:31.724Z,1596
2019-02-28T08:35:33.924Z,1608
2019-02-28T08:36:27.935Z,1616
2019-02-28T08:37:29.239Z,1624
2019-02-28T08:38:30.032Z,1656
2019-02-28T08:39:28.566Z,1660
2019-02-28T08:40:31.263Z,1684
2019-02-28T08:41:32.702Z,1692
2019-02-28T08:42:28.037Z,1692
2019-02-28T08:43:33.886Z,1684
2019-02-28T08:44:30.927Z,1696
2019-02-28T08:45:33.182Z,1700
2019-02-28T08:46:28.981Z,1716
2019-02-28T08:47:28.681Z,1732
2019-02-28T08:48:34.884Z,1740
2019-02-28T08:49:28.701Z,1756
2019-02-28T08:50:30.943Z,1760
2019-02-28T08:51:35.544Z,1764
2019-02-28T08:52:28.495Z,1768
2019-02-28T08:53:28.769Z,1780
2019-02-28T08:54:33.197Z,1780
2019-02-28T08:55:38.249Z,1764
2019-02-28T08:56:28.568Z,1724
2019-02-28T08:57:32.351Z,1696
2019-02-28T08:58:29.138Z,1704
2019-02-28T08:59:29.627Z,1764
2019-02-28T09:00:33.817Z,1828
2019-02-28T09:01:28.923Z,1852
2019-02-28T09:02:30.334Z,1756
2019-02-28T09:03:34.058Z,1752
2019-02-28T09:04:28.717Z,1768
2019-02-28T09:05:34.708Z,1744
2019-02-28T09:06:29.819Z,1728
2019-02-28T09:07:29.055Z,1788
2019-02-28T09:08:32.400Z,1940
2019-02-28T09:09:28.547Z,1936
2019-02-28T09:10:29.091Z,1964
2019-02-28T09:11:29.118Z,1992
2019-02-28T09:12:29.848Z,1992
2019-02-28T09:13:29.514Z,2000
2019-02-28T09:14:29.424Z,2012
2019-02-28T09:15:35.082Z,1900
2019-02-28T09:16:29.463Z,1828
2019-02-28T09:17:29.237Z,1892
2019-02-28T09:18:29.256Z,1924
2019-02-28T09:19:28.993Z,1880
2019-02-28T09:20:29.013Z,1656
2019-02-28T09:21:29.033Z,1636
2019-02-28T09:22:34.422Z,1900
2019-02-28T09:23:30.378Z,1932
2019-02-28T09:24:30.937Z,1988
2019-02-28T09:25:31.647Z,2076
2019-02-28T09:26:33.168Z,2044
2019-02-28T09:27:29.417Z,1948
2019-02-28T09:28:28.901Z,1952
2019-02-28T09:29:29.442Z,1872
2019-02-28T09:30:34.015Z,1892
2019-02-28T09:31:29.478Z,1796
2019-02-28T09:32:29.234Z,1844
2019-02-28T09:33:30.642Z,1896
2019-02-28T09:34:32.878Z,1752
2019-02-28T09:35:29.027Z,1728
2019-02-28T09:36:29.835Z,1748
2019-02-28T09:37:34.268Z,1776
2019-02-28T09:38:29.349Z,1800
2019-02-28T09:39:29.112Z,1928
2019-02-28T09:40:36.169Z,1948
2019-02-28T09:41:29.144Z,1992
2019-02-28T09:42:29.418Z,1976
2019-02-28T09:43:31.035Z,1904
2019-02-28T09:44:33.781Z,1960
2019-02-28T09:45:29.753Z,2032
2019-02-28T09:46:29.770Z,2076
2019-02-28T09:47:33.044Z,2144
2019-02-28T09:48:30.658Z,2220
2019-02-28T09:49:29.584Z,2232
2019-02-28T09:50:30.205Z,2168
2019-02-28T09:51:34.246Z,2088
2019-02-28T09:52:29.346Z,2164
2019-02-28T09:53:29.637Z,2260
2019-02-28T09:54:31.439Z,2308
2019-02-28T09:55:34.042Z,2408
2019-02-28T09:56:29.465Z,2460
2019-02-28T09:57:30.269Z,2508
2019-02-28T09:58:33.186Z,2552
2019-02-28T09:59:29.778Z,2632
2019-02-28T10:00:31.957Z,2612
2019-02-28T10:01:31.363Z,2592
2019-02-28T10:02:30.059Z,2540
2019-02-28T10:03:29.817Z,2532
2019-02-28T10:04:34.612Z,2468
2019-02-28T10:05:29.864Z,2580
2019-02-28T10:06:30.134Z,2664
2019-02-28T10:07:33.688Z,2776
2019-02-28T10:08:29.658Z,2980
2019-02-28T10:09:29.931Z,3172
2019-02-28T10:10:29.955Z,3128
2019-02-28T10:11:36.407Z,3192
2019-02-28T10:12:30.257Z,3072
2019-02-28T10:13:30.973Z,2968
2019-02-28T10:14:37.067Z,2920
2019-02-28T10:15:30.317Z,2920
2019-02-28T10:16:30.340Z,2920
2019-02-28T10:17:35.501Z,2972
2019-02-28T10:18:30.370Z,3024
2019-02-28T10:19:30.627Z,3024
2019-02-28T10:20:34.946Z,3024
2019-02-28T10:21:33.255Z,2996
2019-02-28T10:22:30.438Z,3052
2019-02-28T10:23:30.459Z,2980
2019-02-28T10:24:33.716Z,2920
2019-02-28T10:25:30.502Z,2928
2019-02-28T10:26:30.256Z,2920
2019-02-28T10:27:34.254Z,2948
2019-02-28T10:28:30.295Z,2920
2019-02-28T10:29:30.311Z,2888
2019-02-28T10:30:38.136Z,2748
2019-02-28T10:31:43.283Z,2652
2019-02-28T10:32:30.367Z,2636
2019-02-28T10:33:30.388Z,2604
2019-02-28T10:34:32.989Z,2636
2019-02-28T10:35:33.391Z,2676
2019-02-28T10:36:30.980Z,2764
2019-02-28T10:37:30.463Z,2844
2019-02-28T10:38:35.178Z,2968
2019-02-28T10:39:30.498Z,3100
2019-02-28T10:40:30.264Z,3276
2019-02-28T10:41:35.836Z,3524
2019-02-28T10:42:30.821Z,3616
2019-02-28T10:43:30.839Z,3732
2019-02-28T10:44:34.931Z,3740
2019-02-28T10:45:30.615Z,3692
2019-02-28T10:46:30.898Z,3444
2019-02-28T10:47:34.981Z,3388
2019-02-28T10:48:30.940Z,3380
2019-02-28T10:49:32.179Z,3424
2019-02-28T10:50:36.593Z,3356
2019-02-28T10:51:30.471Z,3396
2019-02-28T10:52:35.552Z,3396
2019-02-28T10:53:31.828Z,3332
2019-02-28T10:54:30.786Z,3256
2019-02-28T10:55:31.067Z,3320
2019-02-28T10:56:34.144Z,3512
2019-02-28T10:57:30.840Z,3576
2019-02-28T10:58:30.873Z,3664
2019-02-28T10:59:31.587Z,3668
2019-02-28T11:00:36.356Z,3688
2019-02-28T11:01:30.925Z,3768
2019-02-28T11:02:30.937Z,3868
2019-02-28T11:03:36.303Z,3956
2019-02-28T11:04:32.685Z,4056
2019-02-28T11:05:32.190Z,4180
2019-02-28T11:06:34.950Z,4244
2019-02-28T11:07:31.070Z,4232
2019-02-28T11:08:30.850Z,4132
2019-02-28T11:09:32.346Z,4072
2019-02-28T11:10:34.673Z,4028
2019-02-28T11:11:31.377Z,4048
2019-02-28T11:12:31.397Z,4108
2019-02-28T11:13:36.203Z,4256
2019-02-28T11:14:31.745Z,4200
2019-02-28T11:15:31.194Z,4128
2019-02-28T11:16:31.352Z,4056
2019-02-28T11:17:35.846Z,3820
2019-02-28T11:18:31.515Z,3740
2019-02-28T11:19:31.545Z,3724
2019-02-28T11:20:35.722Z,3756
2019-02-28T11:21:34.908Z,3688
2019-02-28T11:22:31.592Z,3632
2019-02-28T11:23:31.344Z,3624
2019-02-28T11:24:33.838Z,3676
2019-02-28T11:25:34.437Z,3788
2019-02-28T11:26:31.404Z,3808
2019-02-28T11:27:31.424Z,3712
2019-02-28T11:28:35.524Z,3580
2019-02-28T11:29:31.202Z,3500
2019-02-28T11:30:31.749Z,3524
2019-02-28T11:31:32.855Z,3468
2019-02-28T11:32:36.204Z,3416
2019-02-28T11:33:32.085Z,3400
2019-02-28T11:34:31.849Z,3400
2019-02-28T11:35:31.578Z,3412
2019-02-28T11:36:35.972Z,3392
2019-02-28T11:37:31.639Z,3404
2019-02-28T11:38:32.161Z,3456
2019-02-28T11:39:38.591Z,3532
2019-02-28T11:40:32.210Z,3612
2019-02-28T11:41:31.960Z,3704
2019-02-28T11:42:35.605Z,3740
2019-02-28T11:43:40.051Z,3756
2019-02-28T11:44:31.753Z,3752
2019-02-28T11:45:32.887Z,3796
2019-02-28T11:46:35.509Z,3820
2019-02-28T11:47:32.086Z,3836
2019-02-28T11:48:32.111Z,3832
2019-02-28T11:49:35.228Z,3848
2019-02-28T11:50:32.402Z,3884
2019-02-28T11:51:32.825Z,3936
2019-02-28T11:52:34.142Z,3968
2019-02-28T11:53:31.936Z,3996
2019-02-28T11:54:31.686Z,4028
2019-02-28T11:55:34.177Z,4052
2019-02-28T11:56:35.376Z,4060
2019-02-28T11:57:32.040Z,4056
2019-02-28T11:58:32.967Z,4024
2019-02-28T11:59:32.702Z,3976
2019-02-28T12:00:37.676Z,3916
2019-02-28T12:01:32.353Z,3852
2019-02-28T12:02:33.962Z,3796
2019-02-28T12:03:37.225Z,3752
2019-02-28T12:04:31.937Z,3732
2019-02-28T12:05:32.186Z,3708
2019-02-28T12:06:33.085Z,3708
2019-02-28T12:07:36.903Z,3668
2019-02-28T12:08:32.758Z,3616
2019-02-28T12:09:31.991Z,3588
2019-02-28T12:10:33.816Z,3564
2019-02-28T12:11:33.443Z,3532
2019-02-28T12:12:32.308Z,3500
2019-02-28T12:13:32.329Z,3468
2019-02-28T12:14:35.500Z,3452
2019-02-28T12:15:32.104Z,3484
2019-02-28T12:16:32.406Z,3528
2019-02-28T12:17:36.001Z,3588
2019-02-28T12:18:33.257Z,3652
2019-02-28T12:19:33.090Z,3720
2019-02-28T12:20:33.437Z,3892
2019-02-28T12:21:32.217Z,4212
2019-02-28T12:22:32.762Z,4332
2019-02-28T12:23:32.519Z,4360
2019-02-28T12:24:34.584Z,4416
2019-02-28T12:25:32.580Z,4516
2019-02-28T12:26:32.850Z,4500
2019-02-28T12:27:34.623Z,4608
2019-02-28T12:28:35.146Z,4764
2019-02-28T12:29:33.177Z,4840
2019-02-28T12:30:32.853Z,4800
2019-02-28T12:31:37.739Z,4816
2019-02-28T12:32:32.703Z,4908
2019-02-28T12:33:32.729Z,4916
2019-02-28T12:34:36.414Z,5144
2019-02-28T12:35:40.898Z,5316
2019-02-28T12:36:34.194Z,5344
2019-02-28T12:37:34.413Z,5304
2019-02-28T12:38:35.891Z,5240
2019-02-28T12:39:36.286Z,5284
2019-02-28T12:40:32.858Z,5184
2019-02-28T12:41:33.576Z,4992
2019-02-28T12:42:34.570Z,4764
2019-02-28T12:43:32.916Z,4732
2019-02-28T12:44:32.675Z,4688
2019-02-28T12:45:33.229Z,4420
2019-02-28T12:46:36.272Z,4276
2019-02-28T12:47:34.371Z,4676
2019-02-28T12:48:33.772Z,4760
2019-02-28T12:49:34.187Z,4072
2019-02-28T12:50:36.279Z,3524
2019-02-28T12:51:33.345Z,3184
2019-02-28T12:52:33.629Z,2888
2019-02-28T12:53:35.028Z,2872
2019-02-28T12:54:37.618Z,2800
2019-02-28T12:55:35.382Z,2612
2019-02-28T12:56:33.447Z,2580
2019-02-28T12:57:32.955Z,2704
2019-02-28T12:58:43.969Z,2744
2019-02-28T12:59:34.749Z,2732
2019-02-28T13:00:33.860Z,2796
2019-02-28T13:01:35.834Z,2884
2019-02-28T13:02:33.046Z,3040
2019-02-28T13:03:33.628Z,3216
2019-02-28T13:04:35.714Z,3272
2019-02-28T13:05:33.624Z,3648
2019-02-28T13:06:33.654Z,3864
2019-02-28T13:07:37.033Z,3900
2019-02-28T13:08:33.427Z,3792
2019-02-28T13:09:34.938Z,3880
2019-02-28T13:10:35.775Z,3836
2019-02-28T13:11:35.657Z,3812
2019-02-28T13:12:34.048Z,3604
2019-02-28T13:13:35.973Z,3444
2019-02-28T13:14:36.738Z,3316
2019-02-28T13:15:33.576Z,3112
2019-02-28T13:16:33.316Z,2956
2019-02-28T13:17:37.783Z,2840
2019-02-28T13:18:33.898Z,2720
2019-02-28T13:19:34.203Z,2692
2019-02-28T13:20:41.442Z,2680
2019-02-28T13:21:36.065Z,2644
2019-02-28T13:22:33.445Z,2572
2019-02-28T13:23:37.892Z,2596
2019-02-28T13:24:34.084Z,2612
2019-02-28T13:25:34.046Z,2664
2019-02-28T13:26:37.856Z,2628
2019-02-28T13:27:34.650Z,2732
2019-02-28T13:28:33.575Z,2764
2019-02-28T13:29:37.258Z,2828
2019-02-28T13:30:33.894Z,2888
2019-02-28T13:31:35.550Z,3000
2019-02-28T13:32:38.076Z,3164
2019-02-28T13:33:34.234Z,3300
2019-02-28T13:34:36.817Z,3424
2019-02-28T13:35:34.253Z,3508
2019-02-28T13:36:34.009Z,3564
2019-02-28T13:37:37.402Z,3608
2019-02-28T13:38:34.544Z,3628
2019-02-28T13:39:38.279Z,3636
2019-02-28T13:40:34.324Z,3636
2019-02-28T13:41:34.762Z,3668
2019-02-28T13:42:36.056Z,3684
2019-02-28T13:43:36.907Z,3700
2019-02-28T13:44:39.663Z,3724
2019-02-28T13:45:34.467Z,3756
2019-02-28T13:46:39.372Z,3828
2019-02-28T13:47:34.200Z,3896
2019-02-28T13:48:40.191Z,3984
2019-02-28T13:49:36.045Z,4032
2019-02-28T13:50:36.625Z,4096
2019-02-28T13:51:41.929Z,4148
2019-02-28T13:52:34.830Z,4176
2019-02-28T13:53:38.579Z,4228
2019-02-28T13:54:34.348Z,4260
2019-02-28T13:55:34.638Z,4308
2019-02-28T13:56:38.718Z,4328
2019-02-28T13:57:34.707Z,4368
2019-02-28T13:58:34.426Z,4364